createdAt,value
2018-03-27T00:00:55.848Z,99.90
2018-03-27T00:03:24.098Z,99.90
2018-03-27T00:05:53.115Z,99.90
2018-03-27T00:08:21.353Z,99.90
2018-03-27T00:10:49.605Z,99.90
2018-03-27T00:13:17.851Z,99.90
2018-03-27T00:15:46.098Z,99.90
2018-03-27T00:18:15.100Z,99.90
2018-03-27T00:20:43.357Z,99.90
2018-03-27T00:23:12.374Z,99.90
2018-03-27T00:25:40.616Z,99.90
2018-03-27T00:28:27.272Z,99.90
2018-03-27T00:31:13.446Z,99.90
2018-03-27T00:33:59.594Z,99.90
2018-03-27T00:36:45.927Z,99.90
2018-03-27T00:39:32.797Z,99.90
2018-03-27T00:45:04.118Z,99.90
2018-03-27T00:47:32.403Z,99.90
2018-03-27T00:50:00.636Z,99.90
2018-03-27T00:52:28.894Z,99.90
2018-03-27T00:54:57.141Z,99.90
2018-03-27T00:57:25.393Z,99.90
2018-03-27T00:59:53.638Z,99.90
2018-03-27T01:02:21.901Z,99.90
2018-03-27T01:04:50.150Z,99.90
2018-03-27T01:07:18.408Z,99.90
2018-03-27T01:09:46.645Z,99.90
2018-03-27T01:12:14.956Z,99.90
2018-03-27T01:14:43.198Z,99.90
2018-03-27T01:17:11.443Z,99.90
2018-03-27T01:19:39.696Z,99.90
2018-03-27T01:22:07.936Z,99.90
2018-03-27T01:24:36.189Z,99.90
2018-03-27T01:27:04.428Z,99.90
2018-03-27T01:29:32.693Z,99.90
2018-03-27T01:32:00.926Z,99.90
2018-03-27T01:34:29.947Z,99.90
2018-03-27T01:36:58.195Z,99.90
2018-03-27T01:39:26.446Z,99.90
2018-03-27T01:41:54.693Z,99.90
2018-03-27T01:44:22.946Z,99.90
2018-03-27T01:46:51.186Z,99.90
2018-03-27T01:49:19.434Z,99.90
2018-03-27T01:51:47.683Z,99.90
2018-03-27T01:54:15.939Z,99.90
2018-03-27T01:56:44.945Z,99.90
2018-03-27T01:59:13.210Z,99.90
2018-03-27T02:01:41.448Z,99.90
2018-03-27T02:04:11.081Z,99.90
2018-03-27T02:06:40.084Z,99.90
2018-03-27T02:09:08.341Z,99.90
2018-03-27T02:11:42.952Z,99.90
2018-03-27T02:14:16.784Z,99.90
2018-03-27T02:16:50.589Z,99.90
2018-03-27T02:19:25.212Z,99.90
2018-03-27T02:21:52.821Z,99.90
2018-03-27T02:27:17.900Z,99.90
2018-03-27T02:29:46.173Z,99.90
2018-03-27T02:32:14.417Z,99.90
2018-03-27T02:34:42.680Z,99.90
2018-03-27T02:37:10.928Z,99.90
2018-03-27T02:39:39.187Z,99.90
2018-03-27T02:42:07.466Z,99.90
2018-03-27T02:44:35.707Z,99.90
2018-03-27T02:47:04.730Z,99.90
2018-03-27T02:49:32.978Z,99.90
2018-03-27T02:52:01.245Z,99.90
2018-03-27T02:54:29.486Z,99.90
2018-03-27T02:56:57.739Z,99.90
2018-03-27T02:59:26.039Z,99.90
2018-03-27T03:01:54.240Z,99.90
2018-03-27T03:04:22.494Z,99.90
2018-03-27T03:06:50.735Z,99.90
2018-03-27T03:09:18.981Z,99.90
2018-03-27T03:11:48.010Z,99.90
2018-03-27T03:14:16.241Z,99.90
2018-03-27T03:16:44.497Z,99.90
2018-03-27T03:19:12.741Z,99.90
2018-03-27T03:21:41.028Z,99.90
2018-03-27T03:24:09.277Z,99.90
2018-03-27T03:26:37.518Z,99.90
2018-03-27T03:29:06.547Z,99.90
2018-03-27T03:31:34.786Z,99.90
2018-03-27T03:34:03.046Z,99.90
2018-03-27T03:36:31.282Z,99.90
2018-03-27T03:38:59.540Z,99.90
2018-03-27T03:41:27.798Z,99.90
2018-03-27T03:43:56.826Z,99.90
2018-03-27T03:46:25.067Z,99.90
2018-03-27T03:48:53.316Z,99.90
2018-03-27T03:51:21.567Z,99.90
2018-03-27T03:53:49.823Z,99.90
2018-03-27T03:56:18.067Z,99.90
2018-03-27T03:58:47.094Z,99.90
2018-03-27T04:01:15.345Z,99.90
2018-03-27T04:03:43.603Z,99.90
2018-03-27T04:06:11.845Z,99.90
2018-03-27T04:08:40.097Z,99.90
2018-03-27T04:11:08.349Z,99.90
2018-03-27T04:13:37.364Z,99.90
2018-03-27T04:16:05.608Z,99.90
2018-03-27T04:18:34.734Z,99.90
2018-03-27T04:21:02.988Z,99.90
2018-03-27T04:23:31.234Z,99.90
2018-03-27T04:25:59.499Z,99.90
2018-03-27T04:28:27.749Z,99.90
2018-03-27T04:30:55.996Z,99.90
2018-03-27T04:33:25.006Z,99.90
2018-03-27T04:35:53.284Z,99.90
2018-03-27T04:38:21.526Z,99.90
2018-03-27T04:40:49.776Z,99.90
2018-03-27T04:43:18.021Z,99.90
2018-03-27T04:45:47.050Z,99.90
2018-03-27T04:48:15.301Z,99.90
2018-03-27T04:50:43.541Z,99.90
2018-03-27T04:53:11.791Z,99.90
2018-03-27T04:55:40.822Z,99.90
2018-03-27T04:58:09.072Z,99.90
2018-03-27T05:00:38.085Z,99.90
2018-03-27T05:03:06.338Z,99.90
2018-03-27T05:05:35.353Z,99.90
2018-03-27T05:08:03.600Z,99.90
2018-03-27T05:10:31.854Z,99.90
2018-03-27T05:13:00.098Z,99.90
2018-03-27T05:15:28.340Z,99.90
2018-03-27T05:17:57.350Z,99.90
2018-03-27T05:20:25.591Z,99.90
2018-03-27T05:22:54.609Z,99.90
2018-03-27T05:25:22.859Z,99.90
2018-03-27T05:27:51.113Z,99.90
2018-03-27T05:30:19.367Z,99.90
2018-03-27T05:32:47.646Z,99.90
2018-03-27T05:35:15.866Z,99.90
2018-03-27T05:37:44.115Z,99.90
2018-03-27T05:40:12.367Z,99.90
2018-03-27T05:42:40.626Z,99.90
2018-03-27T05:45:08.865Z,99.90
2018-03-27T05:47:37.878Z,99.90
2018-03-27T05:50:06.145Z,99.90
2018-03-27T05:52:34.398Z,99.90
2018-03-27T05:55:02.654Z,99.90
2018-03-27T05:57:30.909Z,99.90
2018-03-27T05:59:59.156Z,99.90
2018-03-27T06:02:27.427Z,99.90
2018-03-27T06:04:56.445Z,99.90
2018-03-27T06:07:24.702Z,99.90
2018-03-27T06:09:52.956Z,99.90
2018-03-27T06:12:21.966Z,99.90
2018-03-27T06:14:50.217Z,99.90
2018-03-27T06:17:18.463Z,99.90
2018-03-27T06:19:46.710Z,99.90
2018-03-27T06:22:14.968Z,99.90
2018-03-27T06:24:43.971Z,99.90
2018-03-27T06:27:12.221Z,99.90
2018-03-27T06:29:41.233Z,99.90
2018-03-27T06:32:09.490Z,99.90
2018-03-27T06:34:37.742Z,99.90
2018-03-27T06:37:05.986Z,99.90
2018-03-27T06:39:34.246Z,99.90
2018-03-27T06:42:02.539Z,99.90
2018-03-27T06:44:31.512Z,99.90
2018-03-27T06:46:59.777Z,99.90
2018-03-27T06:49:28.025Z,99.90
2018-03-27T06:51:57.049Z,99.90
2018-03-27T06:54:25.331Z,99.90
2018-03-27T06:56:54.315Z,99.90
2018-03-27T06:59:22.565Z,99.90
2018-03-27T07:01:51.581Z,99.90
2018-03-27T07:04:19.831Z,99.90
2018-03-27T07:06:48.077Z,99.90
2018-03-27T07:09:17.097Z,99.90
2018-03-27T07:11:45.370Z,99.90
2018-03-27T07:14:13.595Z,99.90
2018-03-27T07:16:41.872Z,99.90
2018-03-27T07:19:10.141Z,99.90
2018-03-27T07:21:39.105Z,99.90
2018-03-27T07:24:07.890Z,99.90
2018-03-27T07:26:36.897Z,99.90
2018-03-27T07:29:05.155Z,99.90
2018-03-27T07:31:33.389Z,99.90
2018-03-27T07:34:01.640Z,99.90
2018-03-27T07:36:29.881Z,99.90
2018-03-27T07:38:58.133Z,99.90
2018-03-27T07:41:26.381Z,99.90
2018-03-27T07:43:54.634Z,99.90
2018-03-27T07:46:22.878Z,99.90
2018-03-27T07:48:51.127Z,99.90
2018-03-27T07:51:19.374Z,99.90
2018-03-27T07:53:47.630Z,99.90
2018-03-27T07:56:15.882Z,99.90
2018-03-27T07:58:44.904Z,99.90
2018-03-27T08:01:13.174Z,99.90
2018-03-27T08:03:41.422Z,99.90
2018-03-27T08:06:10.449Z,99.90
2018-03-27T08:08:38.693Z,99.90
2018-03-27T08:11:07.740Z,99.90
2018-03-27T08:13:35.953Z,99.90
2018-03-27T08:16:04.214Z,99.90
2018-03-27T08:18:32.479Z,99.90
2018-03-27T08:21:00.717Z,99.90
2018-03-27T08:23:28.965Z,99.90
2018-03-27T08:25:57.964Z,99.90
2018-03-27T08:28:26.980Z,99.90
2018-03-27T08:30:55.220Z,99.90
2018-03-27T08:33:23.466Z,99.90
2018-03-27T08:35:51.779Z,99.90
2018-03-27T08:38:20.793Z,99.90
2018-03-27T08:40:49.036Z,99.90
2018-03-27T08:43:17.291Z,99.90
2018-03-27T08:45:45.536Z,99.90
2018-03-27T08:48:13.789Z,99.90
2018-03-27T08:50:42.028Z,99.90
2018-03-27T08:53:10.275Z,99.90
2018-03-27T08:55:38.519Z,99.90
2018-03-27T08:58:06.770Z,99.90
2018-03-27T09:00:35.015Z,99.90
2018-03-27T09:03:04.038Z,99.90
2018-03-27T09:05:32.285Z,99.90
2018-03-27T09:08:00.522Z,99.90
2018-03-27T09:10:28.783Z,99.90
2018-03-27T09:12:57.784Z,99.90
2018-03-27T09:15:26.045Z,99.90
2018-03-27T09:17:55.066Z,99.90
2018-03-27T09:20:23.345Z,99.90
2018-03-27T09:22:52.323Z,99.90
2018-03-27T09:25:20.572Z,99.90
2018-03-27T09:27:49.578Z,99.90
2018-03-27T09:30:18.597Z,99.90
2018-03-27T09:32:46.845Z,99.90
2018-03-27T09:35:15.861Z,99.90
2018-03-27T09:37:44.110Z,99.90
2018-03-27T09:40:13.165Z,99.90
2018-03-27T09:42:41.393Z,99.90
2018-03-27T09:45:09.644Z,99.90
2018-03-27T09:47:37.886Z,99.90
2018-03-27T09:50:06.134Z,99.90
2018-03-27T09:52:34.387Z,99.90
2018-03-27T09:55:03.390Z,99.40
2018-03-27T09:57:31.654Z,99.50
2018-03-27T09:59:59.897Z,99.90
2018-03-27T10:02:28.149Z,99.90
2018-03-27T10:04:56.397Z,99.90
2018-03-27T10:07:24.646Z,99.20
2018-03-27T10:09:53.657Z,99.90
2018-03-27T10:12:21.905Z,99.90
2018-03-27T10:14:50.925Z,99.80
2018-03-27T10:17:19.174Z,99.90
2018-03-27T10:19:47.425Z,99.90
2018-03-27T10:22:15.671Z,99.20
2018-03-27T10:24:43.930Z,97.20
2018-03-27T10:27:12.176Z,94.90
2018-03-27T10:29:40.426Z,92.90
2018-03-27T10:32:09.442Z,98.10
2018-03-27T10:34:37.690Z,98.10
2018-03-27T10:37:05.951Z,93.10
2018-03-27T10:39:34.207Z,94.50
2018-03-27T10:42:02.461Z,95.00
2018-03-27T10:44:31.487Z,94.80
2018-03-27T10:46:59.735Z,94.80
2018-03-27T10:49:28.742Z,95.50
2018-03-27T10:51:56.997Z,95.50
2018-03-27T10:54:26.005Z,95.20
2018-03-27T10:56:54.262Z,95.10
2018-03-27T10:59:23.270Z,96.00
2018-03-27T11:01:51.515Z,96.00
2018-03-27T11:04:19.763Z,96.90
2018-03-27T11:06:48.006Z,97.10
2018-03-27T11:09:16.252Z,97.80
2018-03-27T11:11:45.270Z,98.10
2018-03-27T11:14:13.518Z,98.10
2018-03-27T11:16:42.529Z,97.20
2018-03-27T11:19:11.542Z,96.10
2018-03-27T11:21:39.790Z,95.90
2018-03-27T11:24:08.809Z,95.00
2018-03-27T11:26:37.054Z,94.90
2018-03-27T11:29:06.061Z,94.40
2018-03-27T11:31:34.310Z,94.40
2018-03-27T11:34:02.550Z,92.70
2018-03-27T11:36:30.794Z,90.40
2018-03-27T11:38:59.045Z,90.50
2018-03-27T11:41:28.061Z,86.60
2018-03-27T11:43:56.313Z,86.70
2018-03-27T11:46:25.329Z,81.60
2018-03-27T11:48:54.340Z,80.80
2018-03-27T11:51:22.585Z,81.00
2018-03-27T11:53:51.599Z,85.10
2018-03-27T11:56:19.845Z,85.00
2018-03-27T11:58:48.851Z,88.00
2018-03-27T12:01:17.858Z,90.00
2018-03-27T12:03:46.095Z,89.90
2018-03-27T12:06:14.342Z,90.00
2018-03-27T12:08:42.594Z,90.30
2018-03-27T12:11:10.841Z,90.50
2018-03-27T12:13:39.854Z,90.70
2018-03-27T12:16:08.109Z,90.80
2018-03-27T12:18:37.121Z,92.40
2018-03-27T12:21:05.377Z,92.40
2018-03-27T12:23:34.396Z,93.50
2018-03-27T12:26:02.640Z,93.30
2018-03-27T12:28:31.657Z,92.50
2018-03-27T12:30:59.905Z,92.40
2018-03-27T12:33:28.921Z,93.20
2018-03-27T12:35:57.169Z,93.10
2018-03-27T12:38:26.186Z,96.40
2018-03-27T12:40:54.430Z,96.40
2018-03-27T12:43:22.691Z,98.10
2018-03-27T12:45:50.929Z,99.40
2018-03-27T12:48:19.186Z,99.90
2018-03-27T12:50:47.435Z,99.90
2018-03-27T12:53:16.488Z,99.10
2018-03-27T12:55:44.699Z,99.10
2018-03-27T12:58:12.973Z,98.40
2018-03-27T13:00:41.214Z,98.20
2018-03-27T13:03:09.457Z,98.20
2018-03-27T13:05:37.729Z,98.10
2018-03-27T13:08:06.728Z,99.00
2018-03-27T13:10:34.977Z,99.30
2018-03-27T13:13:03.994Z,99.10
2018-03-27T13:15:32.251Z,99.10
2018-03-27T13:18:01.254Z,99.90
2018-03-27T13:20:30.274Z,99.90
2018-03-27T13:22:58.513Z,99.90
2018-03-27T13:25:27.538Z,99.90
2018-03-27T13:27:55.782Z,99.90
2018-03-27T13:30:24.816Z,99.90
2018-03-27T13:32:53.064Z,99.90
2018-03-27T13:35:21.314Z,99.90
2018-03-27T13:37:49.559Z,99.90
2018-03-27T13:40:17.812Z,99.90
2018-03-27T13:42:46.057Z,99.70
2018-03-27T13:45:15.091Z,99.80
2018-03-27T13:47:43.334Z,99.80
2018-03-27T13:50:12.334Z,98.60
2018-03-27T13:52:40.589Z,98.60
2018-03-27T13:55:09.590Z,97.90
2018-03-27T13:57:38.610Z,96.60
2018-03-27T14:00:08.505Z,96.50
2018-03-27T14:02:36.749Z,96.00
2018-03-27T14:05:04.994Z,95.00
2018-03-27T14:07:33.245Z,95.90
2018-03-27T14:10:01.489Z,95.10
2018-03-27T14:12:30.502Z,96.00
2018-03-27T14:14:58.755Z,96.00
2018-03-27T14:17:27.023Z,94.60
2018-03-27T14:19:55.254Z,95.80
2018-03-27T14:22:23.499Z,96.70
2018-03-27T14:24:51.741Z,96.90
2018-03-27T14:27:19.989Z,97.10
2018-03-27T14:29:48.257Z,97.00
2018-03-27T14:32:16.505Z,97.80
2018-03-27T14:34:44.757Z,98.60
2018-03-27T14:37:13.761Z,99.20
2018-03-27T14:39:42.014Z,99.20
2018-03-27T14:42:10.258Z,99.90
2018-03-27T14:44:38.759Z,99.80
2018-03-27T14:47:07.139Z,99.90
2018-03-27T14:49:36.411Z,99.60
2018-03-27T14:52:04.999Z,99.60
2018-03-27T14:54:33.553Z,99.90
2018-03-27T14:57:02.255Z,99.90
2018-03-27T14:59:30.683Z,99.90
2018-03-27T15:01:59.711Z,99.90
2018-03-27T15:04:27.982Z,99.90
2018-03-27T15:06:56.986Z,99.90
2018-03-27T15:09:25.252Z,99.90
2018-03-27T15:11:53.503Z,99.90
2018-03-27T15:14:22.537Z,99.90
2018-03-27T15:16:50.777Z,99.90
2018-03-27T15:19:19.895Z,99.90
2018-03-27T15:21:48.158Z,99.90
2018-03-27T15:24:16.406Z,99.90
2018-03-27T15:26:44.650Z,99.90
2018-03-27T15:29:12.999Z,99.90
2018-03-27T15:31:41.253Z,99.90
2018-03-27T15:34:10.269Z,99.90
2018-03-27T15:36:38.537Z,99.90
2018-03-27T15:39:06.784Z,99.90
2018-03-27T15:41:35.797Z,98.70
2018-03-27T15:44:04.057Z,98.60
2018-03-27T15:46:33.074Z,98.50
2018-03-27T15:49:01.321Z,98.40
2018-03-27T15:51:29.574Z,98.70
2018-03-27T15:53:57.823Z,98.10
2018-03-27T15:56:26.074Z,98.30
2018-03-27T15:58:54.320Z,98.00
2018-03-27T16:01:22.571Z,98.70
2018-03-27T16:03:50.824Z,99.10
2018-03-27T16:06:19.059Z,99.30
2018-03-27T16:08:48.073Z,99.20
2018-03-27T16:11:16.321Z,99.20
2018-03-27T16:13:45.374Z,98.80
2018-03-27T16:16:13.631Z,98.80
2018-03-27T16:18:41.892Z,98.70
2018-03-27T16:21:10.126Z,99.20
2018-03-27T16:23:38.377Z,99.40
2018-03-27T16:26:06.679Z,99.90
2018-03-27T16:28:34.891Z,99.90
2018-03-27T16:31:03.137Z,99.90
2018-03-27T16:33:32.175Z,99.90
2018-03-27T16:36:00.410Z,99.90
2018-03-27T16:38:28.659Z,99.90
2018-03-27T16:40:56.907Z,99.90
2018-03-27T16:43:25.165Z,99.90
2018-03-27T16:45:53.406Z,99.90
2018-03-27T16:48:21.644Z,99.90
2018-03-27T16:50:49.909Z,99.90
2018-03-27T16:53:18.153Z,99.90
2018-03-27T16:55:47.165Z,99.90
2018-03-27T16:58:15.421Z,99.90
2018-03-27T17:00:44.439Z,99.90
2018-03-27T17:03:12.700Z,99.90
2018-03-27T17:05:40.952Z,99.90
2018-03-27T17:08:09.186Z,99.90
2018-03-27T17:10:37.434Z,99.90
2018-03-27T17:13:05.676Z,99.90
2018-03-27T17:15:34.694Z,99.90
2018-03-27T17:18:02.933Z,99.90
2018-03-27T17:20:31.185Z,99.90
2018-03-27T17:22:59.438Z,99.90
2018-03-27T17:25:27.688Z,99.90
2018-03-27T17:27:55.940Z,99.90
2018-03-27T17:30:24.198Z,99.90
2018-03-27T17:32:52.442Z,99.90
2018-03-27T17:35:20.686Z,99.90
2018-03-27T17:37:49.697Z,99.90
2018-03-27T17:40:17.973Z,99.90
2018-03-27T17:42:46.226Z,99.90
2018-03-27T17:45:15.238Z,99.90
2018-03-27T17:47:43.482Z,99.90
2018-03-27T17:50:12.494Z,99.90
2018-03-27T17:52:41.512Z,99.90
2018-03-27T17:55:09.757Z,99.90
2018-03-27T17:57:38.784Z,99.90
2018-03-27T18:00:07.026Z,99.90
2018-03-27T18:02:36.045Z,99.90
2018-03-27T18:05:04.284Z,99.90
2018-03-27T18:07:33.302Z,99.90
2018-03-27T18:10:01.550Z,99.90
2018-03-27T18:12:30.573Z,99.90
2018-03-27T18:14:58.818Z,99.90
2018-03-27T18:17:27.841Z,99.90
2018-03-27T18:19:56.098Z,99.90
2018-03-27T18:22:25.113Z,99.90
2018-03-27T18:24:53.358Z,99.90
2018-03-27T18:27:22.377Z,99.90
2018-03-27T18:29:50.622Z,99.90
2018-03-27T18:32:19.629Z,99.90
2018-03-27T18:34:48.695Z,99.90
2018-03-27T18:37:16.938Z,99.90
2018-03-27T18:39:45.197Z,99.90
2018-03-27T18:42:13.491Z,99.90
2018-03-27T18:44:41.844Z,99.90
2018-03-27T18:47:10.175Z,99.90
2018-03-27T18:49:38.437Z,99.90
2018-03-27T18:52:06.721Z,99.90
2018-03-27T18:54:34.983Z,99.90
2018-03-27T18:57:03.256Z,99.90
2018-03-27T18:59:31.532Z,99.90
2018-03-27T19:01:59.791Z,99.90
2018-03-27T19:04:28.037Z,99.90
2018-03-27T19:06:56.418Z,99.90
2018-03-27T19:09:25.466Z,99.90
2018-03-27T19:11:53.687Z,99.90
2018-03-27T19:14:22.707Z,99.90
2018-03-27T19:16:50.973Z,99.90
2018-03-27T19:19:19.253Z,99.90
2018-03-27T19:21:47.507Z,99.90
2018-03-27T19:24:16.519Z,99.90
2018-03-27T19:26:44.781Z,99.90
2018-03-27T19:29:13.265Z,99.90
2018-03-27T19:31:42.470Z,99.90
2018-03-27T19:34:10.725Z,99.90
2018-03-27T19:36:39.750Z,99.90
2018-03-27T19:39:08.145Z,99.90
2018-03-27T19:41:36.469Z,99.90
2018-03-27T19:44:05.490Z,99.90
2018-03-27T19:46:33.761Z,99.90
2018-03-27T19:49:02.010Z,99.90
2018-03-27T19:51:31.177Z,99.90
2018-03-27T19:53:59.524Z,99.90
2018-03-27T19:56:27.819Z,99.90
2018-03-27T19:58:56.077Z,99.90
2018-03-27T20:01:24.334Z,99.90
2018-03-27T20:03:52.578Z,99.90
2018-03-27T20:06:20.831Z,99.90
2018-03-27T20:08:49.180Z,99.90
2018-03-27T20:11:18.523Z,99.90
2018-03-27T20:13:46.744Z,99.90
2018-03-27T20:16:15.006Z,99.90
2018-03-27T20:18:43.254Z,99.90
2018-03-27T20:21:11.505Z,99.90
2018-03-27T20:23:39.862Z,99.90
2018-03-27T20:26:08.124Z,99.90
2018-03-27T20:28:36.366Z,99.90
2018-03-27T20:31:05.390Z,99.90
2018-03-27T20:33:33.653Z,99.90
2018-03-27T20:36:01.917Z,99.90
2018-03-27T20:38:30.937Z,99.90
2018-03-27T20:40:59.188Z,99.90
2018-03-27T20:43:28.194Z,99.90
2018-03-27T20:45:56.442Z,99.90
2018-03-27T20:48:24.703Z,99.90
2018-03-27T20:50:52.945Z,99.90
2018-03-27T20:53:21.208Z,99.90
2018-03-27T20:55:49.460Z,99.90
2018-03-27T20:58:18.482Z,99.90
2018-03-27T21:00:46.730Z,99.90
2018-03-27T21:03:15.752Z,99.90
2018-03-27T21:05:43.997Z,99.90
2018-03-27T21:08:13.024Z,99.90
2018-03-27T21:10:41.282Z,99.90
2018-03-27T21:13:09.541Z,99.90
2018-03-27T21:15:38.555Z,99.90
2018-03-27T21:18:06.803Z,99.90
2018-03-27T21:20:35.053Z,99.90
2018-03-27T21:23:03.303Z,99.90
2018-03-27T21:25:31.550Z,99.90
2018-03-27T21:27:59.794Z,99.90
2018-03-27T21:30:28.054Z,99.90
2018-03-27T21:32:56.290Z,99.90
2018-03-27T21:35:24.546Z,99.90
2018-03-27T21:37:53.550Z,99.90
2018-03-27T21:40:21.802Z,99.90
2018-03-27T21:42:50.805Z,99.90
2018-03-27T21:45:19.822Z,99.90
2018-03-27T21:47:48.095Z,99.90
2018-03-27T21:50:16.349Z,99.90
2018-03-27T21:52:45.372Z,99.90
2018-03-27T21:55:13.610Z,99.90
2018-03-27T21:57:42.626Z,99.90
2018-03-27T22:00:10.862Z,99.90
2018-03-27T22:02:39.119Z,99.90
2018-03-27T22:05:07.361Z,99.90
2018-03-27T22:07:35.617Z,99.90
2018-03-27T22:10:04.740Z,99.90
2018-03-27T22:12:32.989Z,99.90
2018-03-27T22:15:02.005Z,99.90
2018-03-27T22:17:30.253Z,99.90
2018-03-27T22:19:58.494Z,99.90
2018-03-27T22:22:26.753Z,99.90
2018-03-27T22:24:54.994Z,99.90
2018-03-27T22:27:23.236Z,99.90
2018-03-27T22:29:51.481Z,99.90
2018-03-27T22:32:19.733Z,99.90
2018-03-27T22:34:47.976Z,99.90
2018-03-27T22:37:16.995Z,99.90
2018-03-27T22:39:45.232Z,99.90
2018-03-27T22:42:13.485Z,99.90
2018-03-27T22:44:41.738Z,99.90
2018-03-27T22:47:09.992Z,99.90
2018-03-27T22:49:38.239Z,99.90
2018-03-27T22:52:06.477Z,99.90
2018-03-27T22:54:34.730Z,99.90
2018-03-27T22:57:02.961Z,99.90
2018-03-27T22:59:31.213Z,99.90
2018-03-27T23:01:59.463Z,99.90
2018-03-27T23:04:27.717Z,99.90
2018-03-27T23:06:55.957Z,99.90
2018-03-27T23:09:24.205Z,99.90
2018-03-27T23:11:52.528Z,99.90
2018-03-27T23:14:21.538Z,99.90
2018-03-27T23:16:49.787Z,99.90
2018-03-27T23:19:18.031Z,99.90
2018-03-27T23:21:46.282Z,99.90
2018-03-27T23:24:14.542Z,99.90
2018-03-27T23:26:42.796Z,99.90
2018-03-27T23:29:11.796Z,99.90
2018-03-27T23:31:40.809Z,99.90
2018-03-27T23:34:09.054Z,99.90
2018-03-27T23:36:38.066Z,99.90
2018-03-27T23:39:06.323Z,99.90
2018-03-27T23:41:34.584Z,99.90
2018-03-27T23:44:02.830Z,99.90
2018-03-27T23:46:31.073Z,99.90
2018-03-27T23:48:59.318Z,99.90
2018-03-27T23:51:27.815Z,99.90
2018-03-27T23:53:56.066Z,99.90
2018-03-27T23:56:25.082Z,99.90
2018-03-27T23:58:53.331Z,99.90
